Time;durP1;ratioP1;P1;durP2;ratioP2;P2;SDS_P1;SDS_P2;PMS_P1;PMS_P2;Temp;Humidity;BMP_temperature;BMP_pressure;BME280_temperature;BME280_humidity;BME280_pressure;Samples;Min_cycle;Max_cycle;Signal;HPM_P1;HPM_P2
2021/09/03 00:01:33;;;;;;;0.40;0.20;;;;;;;13.18;64.30;101016.19;112268;1199;137858;-77
2021/09/03 00:04:01;;;;;;;0.40;0.20;;;;;;;13.14;64.52;101015.95;112419;1203;94864;-80
2021/09/03 00:06:27;;;;;;;0.40;0.20;;;;;;;13.07;64.76;101011.49;112308;1200;138623;-79
2021/09/03 00:08:54;;;;;;;0.40;0.20;;;;;;;13.01;64.67;101012.17;112415;1203;94872;-78
2021/09/03 00:11:21;;;;;;;0.40;0.20;;;;;;;12.99;64.92;101009.73;112410;1199;138876;-78
2021/09/03 00:13:47;;;;;;;0.40;0.20;;;;;;;12.98;64.84;101005.49;112359;1203;109651;-77
2021/09/03 00:16:14;;;;;;;0.40;0.20;;;;;;;12.98;64.79;100999.97;112403;1201;95346;-78
2021/09/03 00:18:41;;;;;;;0.40;0.20;;;;;;;12.95;65.00;100996.32;112222;1201;138164;-79
2021/09/03 00:21:07;;;;;;;0.40;0.20;;;;;;;12.88;65.10;100995.41;112336;1202;94978;-77
2021/09/03 00:23:34;;;;;;;0.40;0.20;;;;;;;12.86;65.07;100990.84;112314;1200;138661;-78
2021/09/03 00:26:00;;;;;;;0.40;0.20;;;;;;;12.81;65.19;100992.39;112366;1200;109559;-78
2021/09/03 00:28:27;;;;;;;0.40;0.20;;;;;;;12.74;65.38;100994.90;112388;1199;94938;-78
2021/09/03 00:30:54;;;;;;;0.40;0.20;;;;;;;12.65;65.57;100993.88;112316;1198;138516;-77
2021/09/03 00:33:21;;;;;;;0.40;0.20;;;;;;;12.61;65.74;100993.08;112366;1199;95540;-78
2021/09/03 00:35:48;;;;;;;0.40;0.20;;;;;;;12.65;65.77;100993.67;112353;1198;138259;-77
2021/09/03 00:38:15;;;;;;;0.40;0.20;;;;;;;12.77;65.40;100992.14;112394;1207;95381;-78
2021/09/03 00:40:41;;;;;;;0.40;0.20;;;;;;;12.83;65.24;100990.01;112554;1199;94849;-77
2021/09/03 00:43:08;;;;;;;0.40;0.20;;;;;;;12.82;65.23;100985.23;112271;1198;138854;-78
2021/09/03 00:45:35;;;;;;;0.40;0.20;;;;;;;12.77;65.28;100990.89;112437;1203;94835;-77
2021/09/03 00:48:01;;;;;;;0.40;0.20;;;;;;;12.82;65.09;100988.98;112303;1199;138080;-78
2021/09/03 00:50:28;;;;;;;0.40;0.20;;;;;;;12.86;65.16;100990.68;112458;1203;94828;-78
2021/09/03 00:52:55;;;;;;;0.40;0.20;;;;;;;12.86;65.06;100985.85;112454;1207;95340;-78
2021/09/03 00:55:21;;;;;;;0.40;0.20;;;;;;;12.80;65.07;100987.79;112380;1206;138817;-77
2021/09/03 00:57:49;;;;;;;0.40;0.20;;;;;;;12.78;65.19;100983.21;112331;1199;94959;-77
2021/09/03 01:00:16;;;;;;;0.40;0.20;;;;;;;12.74;65.23;100980.80;112273;1202;138698;-78
2021/09/03 01:02:43;;;;;;;0.40;0.20;;;;;;;12.67;65.35;100984.72;112427;1200;94914;-79
2021/09/03 01:05:10;;;;;;;0.40;0.20;;;;;;;12.53;65.58;100986.85;112346;1206;94807;-78
2021/09/03 01:07:36;;;;;;;0.40;0.20;;;;;;;12.45;65.82;100984.91;112204;1201;138044;-78
2021/09/03 01:10:04;;;;;;;0.40;0.20;;;;;;;12.49;65.94;100985.37;112381;1208;94822;-78
2021/09/03 01:12:31;;;;;;;0.40;0.20;;;;;;;12.49;65.90;100982.34;112300;1203;137100;-78
2021/09/03 01:14:58;;;;;;;0.40;0.20;;;;;;;12.49;65.92;100981.26;112415;1199;95417;-78
2021/09/03 01:17:25;;;;;;;0.40;0.20;;;;;;;12.46;65.93;100976.71;112309;1201;139433;-78
2021/09/03 01:19:52;;;;;;;0.40;0.20;;;;;;;12.53;65.76;100975.64;112564;1207;94802;-77
2021/09/03 01:22:22;;;;;;;0.40;0.20;;;;;;;12.50;65.39;100978.04;112329;1199;111027;-78
2021/09/03 01:24:49;;;;;;;0.40;0.20;;;;;;;12.56;65.48;100981.28;112296;1202;137675;-78
2021/09/03 01:27:16;;;;;;;0.40;0.20;;;;;;;12.59;65.35;100978.16;112391;1199;95435;-78
2021/09/03 01:29:43;;;;;;;0.40;0.20;;;;;;;12.55;65.27;100969.90;112404;1203;137467;-79
2021/09/03 01:32:09;;;;;;;0.40;0.20;;;;;;;12.51;65.32;100967.67;112321;1199;94896;-79
2021/09/03 01:34:36;;;;;;;0.40;0.20;;;;;;;12.49;65.38;100964.89;112564;1199;95200;-78
2021/09/03 01:37:03;;;;;;;0.40;0.20;;;;;;;12.45;65.56;100965.52;112339;1199;138054;-79
2021/09/03 01:39:29;;;;;;;0.40;0.20;;;;;;;12.40;65.54;100958.34;112451;1199;94803;-77
2021/09/03 01:41:56;;;;;;;0.40;0.20;;;;;;;12.43;65.68;100956.13;112244;1199;137479;-78
2021/09/03 01:44:23;;;;;;;0.40;0.20;;;;;;;12.41;65.77;100952.61;112488;1199;94909;-78
2021/09/03 01:46:49;;;;;;;0.40;0.20;;;;;;;12.46;65.62;100948.94;112433;1207;94917;-78
2021/09/03 01:49:16;;;;;;;0.40;0.20;;;;;;;12.41;65.78;100948.36;112324;1198;139265;-78
2021/09/03 01:51:43;;;;;;;0.40;0.20;;;;;;;12.41;65.82;100947.80;112385;1200;94877;-78
2021/09/03 01:54:09;;;;;;;0.40;0.20;;;;;;;12.51;65.67;100945.77;112318;1203;138707;-78
2021/09/03 01:56:36;;;;;;;0.40;0.30;;;;;;;12.59;65.42;100943.59;112396;1203;94963;-78
2021/09/03 01:59:02;;;;;;;0.40;0.30;;;;;;;12.64;65.24;100943.48;112564;1203;94924;-78
2021/09/03 02:01:29;;;;;;;0.40;0.20;;;;;;;12.67;65.01;100937.88;112296;1199;138204;-77
2021/09/03 02:03:56;;;;;;;0.40;0.20;;;;;;;12.67;65.00;100938.77;112415;1203;94888;-77
2021/09/03 02:06:23;;;;;;;0.40;0.20;;;;;;;12.68;64.91;100939.07;112187;1199;138883;-78
2021/09/03 02:08:49;;;;;;;0.40;0.30;;;;;;;12.63;64.84;100936.73;112407;1199;95988;-79
2021/09/03 02:11:16;;;;;;;0.40;0.20;;;;;;;12.53;65.09;100933.96;112457;1198;95258;-78
2021/09/03 02:13:42;;;;;;;0.40;0.20;;;;;;;12.53;65.35;100932.88;112399;1203;138247;-78
2021/09/03 02:16:09;;;;;;;0.40;0.20;;;;;;;12.58;65.34;100922.80;112382;1203;94791;-78
2021/09/03 02:18:36;;;;;;;0.40;0.30;;;;;;;12.52;65.42;100918.48;112348;1207;138302;-78
2021/09/03 02:21:02;;;;;;;0.40;0.30;;;;;;;12.48;65.53;100917.89;112411;1207;95379;-78
2021/09/03 02:23:31;;;;;;;0.40;0.30;;;;;;;12.47;65.58;100921.29;112280;1198;137977;-78
2021/09/03 02:25:58;;;;;;;0.40;0.20;;;;;;;12.55;65.42;100925.88;112524;1206;94868;-79
2021/09/03 02:28:25;;;;;;;0.40;0.30;;;;;;;12.60;65.07;100920.08;112571;1199;95291;-77
2021/09/03 02:30:52;;;;;;;0.40;0.20;;;;;;;12.59;65.17;100915.09;112358;1203;137916;-77
2021/09/03 02:33:19;;;;;;;0.40;0.20;;;;;;;12.64;64.94;100910.70;112462;1206;94945;-77
2021/09/03 02:35:46;;;;;;;0.40;0.20;;;;;;;12.54;64.82;100906.52;112353;1198;138116;-77
2021/09/03 02:38:12;;;;;;;0.40;0.30;;;;;;;12.49;65.08;100909.48;112449;1199;94818;-75
2021/09/03 02:40:39;;;;;;;0.40;0.30;;;;;;;12.38;65.43;100907.99;112387;1208;108402;-77
2021/09/03 02:43:06;;;;;;;0.40;0.30;;;;;;;12.34;65.61;100907.56;112295;1198;138768;-78
2021/09/03 02:45:33;;;;;;;0.40;0.20;;;;;;;12.30;65.68;100905.34;112343;1207;94914;-77
2021/09/03 02:48:01;;;;;;;0.40;0.30;;;;;;;12.25;65.83;100904.75;112268;1207;137649;-77
2021/09/03 02:50:29;;;;;;;0.40;0.30;;;;;;;12.20;66.00;100906.30;112422;1198;95104;-78
2021/09/03 02:52:56;;;;;;;0.40;0.20;;;;;;;12.18;66.06;100903.31;112507;1206;94841;-79
2021/09/03 02:55:23;;;;;;;0.40;0.30;;;;;;;12.18;65.94;100900.98;112370;1207;138820;-78
2021/09/03 02:57:49;;;;;;;0.40;0.30;;;;;;;12.15;66.10;100900.40;112404;1199;94792;-77
2021/09/03 03:00:16;;;;;;;0.40;0.30;;;;;;;12.13;65.97;100900.25;112301;1203;138225;-78
2021/09/03 03:02:44;;;;;;;0.40;0.30;;;;;;;12.12;65.88;100893.67;112346;1207;94943;-78
2021/09/03 03:05:11;;;;;;;0.40;0.30;;;;;;;12.15;65.88;100892.00;112475;1203;94811;-78
2021/09/03 03:07:38;;;;;;;0.40;0.30;;;;;;;12.16;65.76;100896.98;112294;1206;137805;-78
2021/09/03 03:10:06;;;;;;;0.40;0.30;;;;;;;12.08;65.79;100891.64;112433;1204;94807;-78
2021/09/03 03:12:33;;;;;;;0.40;0.30;;;;;;;12.04;65.91;100889.77;112293;1199;141612;-78
2021/09/03 03:15:00;;;;;;;0.40;0.30;;;;;;;12.03;65.77;100885.36;112477;1201;94975;-78
2021/09/03 03:17:27;;;;;;;0.40;0.30;;;;;;;11.98;65.73;100879.44;112290;1202;138358;-78
2021/09/03 03:19:54;;;;;;;0.40;0.30;;;;;;;11.89;65.92;100875.69;112511;1202;95323;-79
2021/09/03 03:22:21;;;;;;;0.40;0.30;;;;;;;11.88;66.11;100871.09;112465;1207;94841;-78
2021/09/03 03:24:48;;;;;;;0.40;0.30;;;;;;;11.91;66.04;100868.19;112354;1199;138290;-78
2021/09/03 03:27:14;;;;;;;0.40;0.30;;;;;;;12.00;65.77;100864.43;112460;1203;94807;-79
2021/09/03 03:29:44;;;;;;;0.40;0.30;;;;;;;11.96;65.67;100857.58;112493;1202;138256;-78
2021/09/03 03:32:11;;;;;;;0.40;0.30;;;;;;;11.94;65.72;100856.38;112360;1208;95399;-78
2021/09/03 03:34:38;;;;;;;0.40;0.30;;;;;;;11.96;65.59;100851.20;112455;1199;94814;-78
2021/09/03 03:37:04;;;;;;;0.40;0.30;;;;;;;11.98;65.58;100844.73;112307;1200;138895;-77
2021/09/03 03:39:31;;;;;;;0.40;0.30;;;;;;;11.98;65.53;100842.94;112512;1206;94821;-79
2021/09/03 03:42:04;;;;;;;0.40;0.30;;;;;;;11.99;65.64;100836.69;112265;1199;138068;-78
2021/09/03 03:44:31;;;;;;;0.40;0.30;;;;;;;12.02;65.64;100830.73;112477;1203;94886;-79
2021/09/03 03:46:59;;;;;;;0.40;0.30;;;;;;;12.16;65.12;100830.03;112437;1204;109589;-79
2021/09/03 03:49:26;;;;;;;0.40;0.30;;;;;;;12.26;64.76;100825.85;112361;1199;137763;-78
2021/09/03 03:51:57;;;;;;;0.40;0.30;;;;;;;12.23;64.83;100824.34;112425;1206;94829;-76
2021/09/03 03:54:24;;;;;;;0.40;0.30;;;;;;;12.11;64.97;100823.92;112355;1206;138126;-78
2021/09/03 03:56:51;;;;;;;0.40;0.30;;;;;;;12.04;65.18;100822.70;112412;1206;94888;-79
2021/09/03 03:59:18;;;;;;;0.40;0.30;;;;;;;12.00;65.32;100825.12;112395;1207;94867;-79
2021/09/03 04:01:44;;;;;;;0.40;0.30;;;;;;;11.94;65.42;100825.42;112288;1203;137484;-79
2021/09/03 04:04:11;;;;;;;0.40;0.30;;;;;;;11.91;65.59;100827.95;112525;1206;94824;-77
2021/09/03 04:06:38;;;;;;;0.40;0.20;;;;;;;11.98;65.65;100829.41;112283;1199;138400;-76
2021/09/03 04:09:05;;;;;;;0.40;0.30;;;;;;;12.03;65.45;100826.27;112499;1199;94869;-81
2021/09/03 04:11:31;;;;;;;0.40;0.30;;;;;;;12.02;65.29;100824.16;112281;1204;137277;-76
2021/09/03 04:13:58;;;;;;;0.40;0.30;;;;;;;11.99;65.43;100821.21;112472;1206;94927;-79
2021/09/03 04:16:25;;;;;;;0.40;0.30;;;;;;;11.99;65.51;100819.79;112446;1203;95419;-78
2021/09/03 04:18:51;;;;;;;0.40;0.30;;;;;;;12.05;65.48;100819.27;112311;1207;139220;-79
2021/09/03 04:21:18;;;;;;;0.40;0.30;;;;;;;12.12;65.30;100818.55;112299;1199;94889;-79
2021/09/03 04:23:45;;;;;;;0.40;0.30;;;;;;;12.11;65.34;100811.14;112364;1199;137624;-77
2021/09/03 04:26:11;;;;;;;0.40;0.30;;;;;;;12.03;65.39;100811.31;112284;1202;95284;-79
2021/09/03 04:28:38;;;;;;;0.40;0.30;;;;;;;11.99;65.57;100804.48;112553;1207;94855;-79
2021/09/03 04:31:05;;;;;;;0.40;0.30;;;;;;;11.98;65.69;100800.60;112290;1199;138215;-77
2021/09/03 04:33:31;;;;;;;0.40;0.30;;;;;;;11.98;65.87;100792.76;112371;1199;96595;-79
2021/09/03 04:35:58;;;;;;;0.40;0.30;;;;;;;11.99;65.91;100790.06;112271;1199;138458;-78
2021/09/03 04:38:25;;;;;;;0.40;0.30;;;;;;;12.01;66.09;100784.85;112370;1200;94895;-77
2021/09/03 04:40:52;;;;;;;0.40;0.30;;;;;;;12.05;66.12;100782.63;112317;1199;94960;-77
2021/09/03 04:43:20;;;;;;;0.40;0.30;;;;;;;12.03;66.21;100784.80;112306;1207;139104;-77
2021/09/03 04:45:46;;;;;;;0.40;0.30;;;;;;;12.06;66.50;100789.34;112319;1200;94916;-76
2021/09/03 04:48:14;;;;;;;0.40;0.30;;;;;;;12.11;66.61;100790.82;112307;1198;139387;-77
2021/09/03 04:50:41;;;;;;;0.40;0.30;;;;;;;12.20;66.57;100788.28;112326;1199;94863;-77
2021/09/03 04:53:08;;;;;;;0.40;0.30;;;;;;;12.32;66.54;100788.13;112422;1206;94801;-77
2021/09/03 04:55:35;;;;;;;0.40;0.30;;;;;;;12.39;66.26;100788.48;112207;1200;137951;-79
2021/09/03 04:58:01;;;;;;;0.40;0.30;;;;;;;12.46;66.34;100787.77;112368;1200;94865;-78
2021/09/03 05:00:28;;;;;;;0.40;0.30;;;;;;;12.55;66.25;100785.20;112273;1203;138151;-79
2021/09/03 05:02:55;;;;;;;0.40;0.30;;;;;;;12.65;66.19;100785.79;112473;1201;94963;-79
2021/09/03 05:05:22;;;;;;;0.40;0.30;;;;;;;12.71;66.22;100790.62;112179;1198;137857;-77
2021/09/03 05:07:49;;;;;;;0.40;0.20;;;;;;;12.83;65.82;100789.02;112381;1198;94928;-77
2021/09/03 05:10:15;;;;;;;0.40;0.20;;;;;;;12.93;65.73;100781.93;112395;1198;94852;-77
2021/09/03 05:12:42;;;;;;;0.40;0.30;;;;;;;13.02;65.37;100782.02;112319;1198;136441;-78
2021/09/03 05:15:14;;;;;;;0.40;0.30;;;;;;;13.12;64.84;100779.58;112295;1198;95617;-77
2021/09/03 05:17:50;;;;;;;0.40;0.30;;;;;;;13.18;64.95;100775.83;112504;1199;138645;-77
2021/09/03 05:20:17;;;;;;;0.40;0.30;;;;;;;13.29;64.81;100774.79;112114;1207;95420;-77
2021/09/03 05:22:44;;;;;;;0.40;0.20;;;;;;;13.33;64.89;100780.38;112404;1206;94803;-77
2021/09/03 05:25:14;;;;;;;0.40;0.20;;;;;;;13.34;64.92;100780.17;112085;1207;137729;-77
2021/09/03 05:27:42;;;;;;;0.40;0.30;;;;;;;13.34;64.91;100781.92;112194;1199;109556;-77
2021/09/03 05:30:09;;;;;;;0.40;0.20;;;;;;;13.37;64.88;100784.02;112728;1199;138885;-76
2021/09/03 05:32:36;;;;;;;0.40;0.20;;;;;;;13.38;64.60;100780.42;112388;1200;94785;-77
2021/09/03 05:35:08;;;;;;;0.40;0.30;;;;;;;13.35;64.76;100775.14;112304;1199;108273;-77
2021/09/03 05:37:35;;;;;;;0.40;0.20;;;;;;;13.37;64.81;100775.80;112244;1200;138143;-77
2021/09/03 05:40:04;;;;;;;0.40;0.30;;;;;;;13.47;65.28;100776.21;112360;1203;94827;-77
2021/09/03 05:42:30;;;;;;;0.40;0.30;;;;;;;13.62;64.98;100772.34;112210;1200;138852;-77
2021/09/03 05:44:57;;;;;;;0.40;0.20;;;;;;;13.67;64.66;100770.39;112298;1199;94842;-77
2021/09/03 05:47:24;;;;;;;0.40;0.20;;;;;;;13.68;64.67;100763.20;112145;1206;137842;-77
2021/09/03 05:49:51;;;;;;;0.40;0.20;;;;;;;13.71;64.66;100757.39;112326;1199;94826;-77
2021/09/03 05:52:17;;;;;;;0.40;0.20;;;;;;;13.84;64.68;100756.97;112220;1200;94784;-77
2021/09/03 05:54:45;;;;;;;0.40;0.20;;;;;;;13.93;64.79;100755.25;112130;1199;138820;-80
2021/09/03 05:57:11;;;;;;;0.40;0.20;;;;;;;14.02;64.77;100757.06;112266;1200;95350;-78
2021/09/03 05:59:38;;;;;;;0.40;0.30;;;;;;;14.09;64.28;100746.84;112207;1206;138669;-79
2021/09/03 06:02:05;;;;;;;0.40;0.20;;;;;;;14.17;64.16;100748.14;112380;1203;94904;-77
2021/09/03 06:04:32;;;;;;;0.40;0.20;;;;;;;14.24;63.91;100745.23;112436;1199;95260;-77
2021/09/03 06:06:59;;;;;;;0.40;0.20;;;;;;;14.29;63.89;100748.24;112220;1200;136562;-77
2021/09/03 06:09:25;;;;;;;0.40;0.20;;;;;;;14.31;64.27;100749.98;112423;1199;96781;-79
2021/09/03 06:11:54;;;;;;;0.40;0.20;;;;;;;14.39;63.83;100741.45;112312;1198;138507;-79
2021/09/03 06:14:22;;;;;;;0.40;0.20;;;;;;;14.48;63.89;100737.89;112399;1198;94789;-78
2021/09/03 06:16:49;;;;;;;0.40;0.20;;;;;;;14.58;63.15;100735.23;112415;1198;94906;-78
2021/09/03 06:19:17;;;;;;;0.40;0.20;;;;;;;14.64;62.86;100736.28;112305;1200;138898;-78
2021/09/03 06:21:44;;;;;;;0.40;0.20;;;;;;;14.64;62.83;100738.08;112344;1200;109681;-79
2021/09/03 06:27:08;;;;;;;0.40;0.20;;;;;;;14.80;62.19;100738.17;112366;1199;94919;-78
2021/09/03 06:32:06;;;;;;;0.40;0.20;;;;;;;14.97;61.44;100733.23;112387;1200;109871;-79
2021/09/03 06:34:34;;;;;;;0.40;0.20;;;;;;;15.02;61.41;100728.02;112477;1206;94799;-78
2021/09/03 06:37:00;;;;;;;0.40;0.20;;;;;;;15.12;61.46;100727.45;112295;1206;137757;-78
2021/09/03 06:39:27;;;;;;;0.40;0.20;;;;;;;15.23;60.95;100728.96;112382;1199;95342;-81
2021/09/03 06:41:54;;;;;;;0.40;0.20;;;;;;;15.33;60.53;100722.50;112272;1206;138023;-77
2021/09/03 06:44:21;;;;;;;0.40;0.20;;;;;;;15.44;60.44;100720.45;112276;1200;94931;-78
2021/09/03 06:46:48;;;;;;;0.40;0.20;;;;;;;15.50;59.83;100716.61;112306;1206;95315;-78
2021/09/03 06:49:14;;;;;;;0.40;0.20;;;;;;;15.57;59.87;100717.23;112313;1206;137735;-76
2021/09/03 06:51:41;;;;;;;0.40;0.20;;;;;;;15.60;59.03;100715.48;112293;1206;108523;-77
2021/09/03 06:54:08;;;;;;;0.40;0.20;;;;;;;15.64;59.32;100711.20;112306;1198;138019;-77
2021/09/03 06:56:34;;;;;;;0.40;0.20;;;;;;;15.80;59.01;100707.14;112329;1199;94887;-77
2021/09/03 06:59:02;;;;;;;0.40;0.20;;;;;;;15.95;58.76;100706.34;112443;1199;95359;-78
2021/09/03 07:01:29;;;;;;;0.40;0.20;;;;;;;16.05;58.47;100703.04;112286;1200;138501;-77
2021/09/03 07:03:56;;;;;;;0.40;0.20;;;;;;;16.15;58.13;100701.13;112429;1199;94821;-77
2021/09/03 07:06:23;;;;;;;0.40;0.20;;;;;;;16.19;57.88;100697.55;112236;1200;139320;-77
2021/09/03 07:08:50;;;;;;;0.40;0.20;;;;;;;16.26;57.46;100696.90;112431;1206;94843;-76
2021/09/03 07:11:17;;;;;;;0.40;0.20;;;;;;;16.30;56.76;100697.25;112451;1206;95286;-78
2021/09/03 07:13:43;;;;;;;0.40;0.20;;;;;;;16.34;56.82;100697.61;112372;1199;139438;-77
2021/09/03 07:16:10;;;;;;;0.40;0.20;;;;;;;16.37;56.74;100696.73;112385;1206;95314;-76
2021/09/03 07:18:37;;;;;;;0.40;0.10;;;;;;;16.43;56.63;100699.33;112045;1200;137714;-79
2021/09/03 07:21:03;;;;;;;0.40;0.20;;;;;;;16.51;56.35;100698.26;112445;1199;95027;-78
2021/09/03 07:23:30;;;;;;;0.40;0.20;;;;;;;16.56;55.99;100697.31;112339;1202;138395;-78
2021/09/03 07:25:57;;;;;;;0.40;0.20;;;;;;;16.63;55.93;100695.56;112433;1202;110260;-78
2021/09/03 07:28:23;;;;;;;0.40;0.20;;;;;;;16.71;55.76;100694.66;112305;1199;95398;-78
2021/09/03 07:30:50;;;;;;;0.40;0.20;;;;;;;16.80;55.29;100695.31;112327;1204;137906;-78
2021/09/03 07:33:17;;;;;;;0.40;0.10;;;;;;;16.91;55.39;100693.54;112395;1199;94860;-78
2021/09/03 07:35:45;;;;;;;0.40;0.10;;;;;;;17.02;54.93;100693.94;112345;1200;136826;-79
2021/09/03 07:38:12;;;;;;;0.40;0.20;;;;;;;17.08;54.55;100690.23;112396;1199;95563;-77
2021/09/03 07:40:39;;;;;;;0.40;0.20;;;;;;;17.16;53.73;100690.39;112472;1206;94839;-76
2021/09/03 07:43:07;;;;;;;0.40;0.20;;;;;;;17.20;53.23;100683.33;112361;1199;138118;-78
2021/09/03 07:45:35;;;;;;;0.40;0.20;;;;;;;17.28;53.65;100679.55;112538;1198;94851;-77
2021/09/03 07:48:02;;;;;;;0.40;0.10;;;;;;;17.37;53.49;100679.64;112370;1199;138347;-76
2021/09/03 07:50:29;;;;;;;0.40;0.10;;;;;;;17.47;53.17;100669.27;112474;1199;94881;-78
2021/09/03 07:52:56;;;;;;;0.40;0.20;;;;;;;17.53;52.50;100666.98;112383;1200;94839;-76
2021/09/03 07:55:40;;;;;;;0.40;0.10;;;;;;;17.60;51.96;100662.16;112300;1199;136592;-76
2021/09/03 07:58:08;;;;;;;0.40;0.10;;;;;;;17.64;52.25;100659.59;112383;1199;94893;-77
2021/09/03 08:00:35;;;;;;;0.40;0.10;;;;;;;17.70;51.72;100653.92;112328;1199;137915;-77
2021/09/03 08:03:03;;;;;;;0.40;0.10;;;;;;;17.76;51.78;100652.01;112441;1199;95377;-77
2021/09/03 08:05:30;;;;;;;0.40;0.10;;;;;;;17.89;52.49;100647.38;112277;1199;137853;-77
2021/09/03 08:07:57;;;;;;;0.40;0.10;;;;;;;18.03;52.39;100642.19;112371;1198;95339;-77
2021/09/03 08:10:26;;;;;;;0.40;0.10;;;;;;;18.13;51.95;100639.14;112472;1199;95562;-77
2021/09/03 08:12:53;;;;;;;0.40;0.10;;;;;;;18.24;50.81;100635.64;112309;1198;138195;-79
2021/09/03 08:15:19;;;;;;;0.40;0.10;;;;;;;18.37;51.27;100634.36;112416;1199;94961;-76
2021/09/03 08:17:46;;;;;;;0.40;0.10;;;;;;;18.48;50.41;100636.46;112216;1206;139137;-76
2021/09/03 08:20:14;;;;;;;0.40;0.20;;;;;;;18.56;50.18;100636.19;112423;1200;94788;-76
2021/09/03 08:22:42;;;;;;;0.40;0.10;;;;;;;18.63;49.96;100637.27;112436;1199;95321;-76
2021/09/03 08:25:09;;;;;;;0.40;0.10;;;;;;;18.75;50.46;100636.27;112211;1199;137401;-76
2021/09/03 08:27:36;;;;;;;0.40;0.10;;;;;;;18.87;49.96;100633.40;112357;1206;94890;-79
2021/09/03 08:30:04;;;;;;;0.40;0.10;;;;;;;18.97;49.16;100635.02;112354;1206;137926;-77
2021/09/03 08:32:31;;;;;;;0.40;0.10;;;;;;;19.05;49.05;100633.28;112369;1201;94847;-77
2021/09/03 08:34:58;;;;;;;0.40;0.10;;;;;;;19.17;48.92;100629.36;112445;1200;95379;-77
2021/09/03 08:37:26;;;;;;;0.40;0.10;;;;;;;19.26;48.29;100626.70;112261;1198;136712;-77
2021/09/03 08:39:54;;;;;;;0.40;0.10;;;;;;;19.38;48.35;100625.97;112443;1206;94863;-76
2021/09/03 08:42:21;;;;;;;0.40;0.10;;;;;;;19.49;48.40;100621.90;112308;1203;138036;-77
2021/09/03 08:44:51;;;;;;;0.40;0.10;;;;;;;19.55;47.38;100621.16;112350;1206;95349;-78
2021/09/03 08:47:20;;;;;;;0.40;0.10;;;;;;;19.62;47.73;100612.27;112315;1200;110517;-76
2021/09/03 08:49:50;;;;;;;0.40;0.10;;;;;;;19.72;47.75;100608.64;112408;1205;137431;-76
2021/09/03 08:52:18;;;;;;;0.40;0.10;;;;;;;19.74;46.66;100606.16;112361;1200;94823;-77
2021/09/03 08:54:45;;;;;;;0.40;0.10;;;;;;;19.79;47.13;100594.55;112330;1199;137593;-76
2021/09/03 08:57:16;;;;;;;0.40;0.10;;;;;;;19.88;46.89;100593.40;112399;1199;108973;-77
2021/09/03 08:59:43;;;;;;;0.40;0.10;;;;;;;19.98;47.04;100589.20;112333;1198;139091;-80
2021/09/03 09:02:15;;;;;;;0.40;0.10;;;;;;;20.10;47.44;100583.96;112436;1198;94917;-75
2021/09/03 09:04:45;;;;;;;0.40;0.10;;;;;;;20.19;46.15;100578.86;112361;1198;108049;-81
2021/09/03 09:07:12;;;;;;;0.40;0.10;;;;;;;20.27;45.24;100579.45;112348;1199;138759;-77
2021/09/03 09:09:44;;;;;;;0.40;0.10;;;;;;;20.37;45.42;100580.46;112405;1198;97862;-78
2021/09/03 09:12:13;;;;;;;0.40;0.10;;;;;;;20.50;45.54;100578.33;112291;1199;137672;-80
2021/09/03 09:15:03;;;;;;;0.40;0.10;;;;;;;20.88;44.98;100574.05;112438;1206;107670;-78
2021/09/03 09:17:38;;;;;;;0.40;0.10;;;;;;;22.44;41.65;100564.68;112360;1199;138657;-76
2021/09/03 09:20:12;;;;;;;0.40;0.10;;;;;;;24.08;38.06;100562.91;112361;1199;94880;-78
2021/09/03 09:22:56;;;;;;;0.40;0.10;;;;;;;25.75;36.47;100549.88;112455;1200;95487;-77
2021/09/03 09:25:26;;;;;;;0.40;0.00;;;;;;;27.42;33.00;100548.90;112236;1199;138017;-79
2021/09/03 09:27:54;;;;;;;0.40;0.00;;;;;;;28.42;30.00;100552.76;112435;1200;109476;-80
2021/09/03 09:30:30;;;;;;;0.40;0.00;;;;;;;29.19;29.41;100552.21;112333;1206;138271;-78
2021/09/03 09:33:16;;;;;;;0.40;0.00;;;;;;;29.87;28.74;100543.94;112461;1206;95413;-77
2021/09/03 09:35:45;;;;;;;0.40;0.00;;;;;;;30.32;28.19;100543.69;112269;1200;137730;-79
2021/09/03 09:38:13;;;;;;;0.40;0.00;;;;;;;29.85;27.96;100544.27;112463;1206;109613;-78
2021/09/03 09:40:45;;;;;;;0.40;0.00;;;;;;;29.98;27.85;100539.08;112450;1198;95348;-77
2021/09/03 09:43:27;;;;;;;0.40;0.00;;;;;;;30.93;26.97;100533.85;112366;1200;138567;-75
2021/09/03 09:46:07;;;;;;;0.40;0.00;;;;;;;31.99;26.17;100531.83;112408;1200;101131;-78
2021/09/03 09:48:49;;;;;;;0.40;0.00;;;;;;;33.03;25.23;100530.35;112336;1198;138405;-78
2021/09/03 09:51:28;;;;;;;0.40;0.00;;;;;;;33.65;24.24;100522.08;112484;1199;94782;-78
2021/09/03 09:54:00;;;;;;;0.40;0.00;;;;;;;34.39;22.84;100515.83;112305;1200;138620;-76
2021/09/03 09:56:30;;;;;;;0.40;0.00;;;;;;;34.77;21.83;100514.05;112466;1201;101328;-77
2021/09/03 09:58:58;;;;;;;0.40;0.00;;;;;;;35.16;21.52;100515.27;112460;1199;100747;-78
2021/09/03 10:01:25;;;;;;;0.40;0.00;;;;;;;35.68;21.19;100511.50;112396;1199;138348;-79
2021/09/03 10:03:53;;;;;;;0.40;0.00;;;;;;;35.88;20.43;100504.02;112289;1203;95339;-76
2021/09/03 10:06:22;;;;;;;0.40;0.00;;;;;;;36.09;20.50;100505.40;112344;1200;137543;-78
2021/09/03 10:08:50;;;;;;;0.40;0.00;;;;;;;36.24;19.75;100505.93;112206;1200;100827;-77
2021/09/03 10:11:18;;;;;;;0.40;0.00;;;;;;;36.22;19.87;100498.42;112457;1200;94963;-77
2021/09/03 10:13:44;;;;;;;0.40;0.00;;;;;;;36.54;20.12;100503.11;112364;1206;138000;-77
2021/09/03 10:16:12;;;;;;;0.40;0.00;;;;;;;36.74;19.54;100503.23;112524;1206;95284;-78
2021/09/03 10:18:40;;;;;;;0.40;0.00;;;;;;;36.61;19.14;100501.52;112261;1206;137736;-78
2021/09/03 10:21:07;;;;;;;0.40;0.00;;;;;;;36.60;19.96;100496.39;112462;1201;93872;-76
2021/09/03 10:23:56;;;;;;;0.40;0.00;;;;;;;36.73;19.22;100490.66;112314;1199;137782;-76
2021/09/03 10:26:26;;;;;;;0.40;0.00;;;;;;;36.57;19.65;100485.33;112522;1206;99205;-77
2021/09/03 10:29:27;;;;;;;0.40;0.00;;;;;;;37.08;19.93;100483.46;112423;1206;99503;-76
2021/09/03 10:32:19;;;;;;;0.40;0.00;;;;;;;37.43;19.00;100478.48;112339;1200;138648;-77
2021/09/03 10:34:51;;;;;;;0.40;0.00;;;;;;;37.40;18.93;100476.54;112462;1206;94962;-80
2021/09/03 10:37:27;;;;;;;0.40;0.00;;;;;;;37.74;19.56;100462.14;112249;1199;137514;-76
2021/09/03 10:40:02;;;;;;;0.40;0.00;;;;;;;38.44;19.03;100463.05;112407;1200;101465;-77
2021/09/03 10:45:08;;;;;;;0.40;0.00;;;;;;;39.01;18.55;100447.52;112499;1206;94841;-77
2021/09/03 10:47:40;;;;;;;0.40;0.00;;;;;;;38.85;18.33;100450.92;112327;1206;137743;-78
2021/09/03 10:50:22;;;;;;;0.40;0.00;;;;;;;37.51;18.94;100450.15;112463;1206;100878;-78
2021/09/03 10:55:49;;;;;;;0.40;0.00;;;;;;;33.96;22.91;100446.16;112402;1199;138296;-76
2021/09/03 10:58:38;;;;;;;0.40;0.00;;;;;;;32.24;24.48;100448.20;112414;1199;109253;-76
2021/09/03 11:03:45;;;;;;;0.40;0.00;;;;;;;29.76;27.79;100441.52;112517;1200;94840;-76
2021/09/03 11:06:27;;;;;;;0.40;0.00;;;;;;;28.72;29.57;100445.85;112347;1206;137631;-77
2021/09/03 11:08:56;;;;;;;0.40;0.00;;;;;;;27.94;31.29;100439.65;112418;1199;109145;-77
2021/09/03 11:11:32;;;;;;;0.40;0.00;;;;;;;27.19;32.37;100438.64;112445;1198;109475;-77
2021/09/03 11:14:07;;;;;;;0.40;0.00;;;;;;;26.55;33.38;100437.33;112265;1206;137629;-75
2021/09/03 11:16:42;;;;;;;0.40;0.00;;;;;;;26.09;34.72;100433.15;112468;1206;94800;-76
2021/09/03 11:19:17;;;;;;;0.40;0.00;;;;;;;25.82;35.95;100436.70;112381;1200;138124;-76
2021/09/03 11:21:45;;;;;;;0.40;0.00;;;;;;;25.51;36.15;100432.22;112389;1200;109442;-76
2021/09/03 11:24:18;;;;;;;0.40;0.00;;;;;;;25.26;36.71;100428.70;112351;1199;138662;-79
2021/09/03 11:26:46;;;;;;;0.40;0.00;;;;;;;24.94;36.67;100424.20;112538;1199;95560;-76
2021/09/03 11:29:47;;;;;;;0.40;0.00;;;;;;;24.70;37.38;100426.21;112460;1200;109190;-77
2021/09/03 11:32:14;;;;;;;0.40;0.00;;;;;;;24.46;38.18;100423.16;112277;1199;138346;-75
2021/09/03 11:34:43;;;;;;;0.40;0.00;;;;;;;24.33;38.84;100415.50;112475;1206;94813;-76